createdAt,value
2018-04-12T00:00:03.141Z,64.50
2018-04-12T00:01:03.148Z,63.50
2018-04-12T00:02:03.122Z,67.50
2018-04-12T00:03:03.097Z,69.30
2018-04-12T00:04:03.100Z,68.50
2018-04-12T00:05:03.073Z,66.40
2018-04-12T00:06:03.061Z,66.40
2018-04-12T00:07:03.050Z,70.10
2018-04-12T00:08:03.030Z,70.00
2018-04-12T00:09:03.035Z,71.20
2018-04-12T00:10:02.966Z,69.50
2018-04-12T00:12:25.105Z,69.70
2018-04-12T00:13:25.032Z,67.70
2018-04-12T00:15:18.485Z,71.50
2018-04-12T00:16:18.361Z,70.00
2018-04-12T00:18:12.878Z,72.40
2018-04-12T00:19:12.723Z,71.90
2018-04-12T00:20:12.714Z,72.70
2018-04-12T00:21:12.729Z,76.50
2018-04-12T00:22:12.660Z,71.50
2018-04-12T00:23:12.648Z,73.40
2018-04-12T00:24:12.665Z,73.20
2018-04-12T00:25:12.592Z,74.20
2018-04-12T00:26:12.576Z,72.80
2018-04-12T00:27:12.601Z,75.70
2018-04-12T00:28:12.549Z,72.40
2018-04-12T00:29:12.569Z,75.30
2018-04-12T00:30:12.498Z,73.10
2018-04-12T00:31:12.528Z,76.80
2018-04-12T00:32:12.473Z,76.00
2018-04-12T00:33:12.472Z,75.00
2018-04-12T00:34:12.428Z,78.80
2018-04-12T00:35:12.404Z,74.40
2018-04-12T00:36:12.425Z,77.40
2018-04-12T00:37:12.385Z,78.60
2018-04-12T00:38:12.370Z,77.70
2018-04-12T00:39:12.347Z,74.50
2018-04-12T00:40:12.317Z,76.10
2018-04-12T00:42:34.406Z,75.30
2018-04-12T00:43:34.384Z,76.00
2018-04-12T00:44:34.313Z,76.80
2018-04-12T00:45:34.286Z,80.50
2018-04-12T00:46:34.261Z,76.80
2018-04-12T00:47:34.272Z,77.00
2018-04-12T00:48:34.220Z,77.70
2018-04-12T00:49:34.237Z,79.20
2018-04-12T00:50:34.192Z,77.70
2018-04-12T00:51:34.165Z,78.20
2018-04-12T00:52:34.186Z,78.20
2018-04-12T00:53:34.154Z,78.90
2018-04-12T00:54:34.118Z,81.80
2018-04-12T00:55:34.079Z,76.50
2018-04-12T00:56:34.077Z,79.40
2018-04-12T00:57:34.072Z,77.40
2018-04-12T00:58:34.101Z,78.20
2018-04-12T00:59:34.015Z,80.90
2018-04-12T01:00:33.984Z,76.90
2018-04-12T01:03:07.091Z,76.70
2018-04-12T01:03:56.965Z,77.10
2018-04-12T01:04:57.018Z,79.10
2018-04-12T01:05:56.952Z,80.80
2018-04-12T01:06:56.907Z,79.30
2018-04-12T01:07:56.906Z,78.60
2018-04-12T01:08:56.936Z,80.10
2018-04-12T01:09:56.859Z,78.80
2018-04-12T01:10:56.835Z,78.40
2018-04-12T01:11:56.822Z,81.50
2018-04-12T01:12:56.799Z,81.70
2018-04-12T01:13:56.791Z,78.00
2018-04-12T01:14:56.750Z,84.60
2018-04-12T01:15:56.786Z,77.40
2018-04-12T01:16:56.718Z,80.00
2018-04-12T01:17:56.717Z,81.70
2018-04-12T01:18:56.708Z,79.00
2018-04-12T01:19:56.664Z,80.00
2018-04-12T01:20:56.664Z,76.70
2018-04-12T01:21:56.639Z,78.50
2018-04-12T01:22:56.623Z,76.50
2018-04-12T01:23:56.586Z,80.30
2018-04-12T01:24:56.569Z,76.90
2018-04-12T01:25:56.561Z,77.60
2018-04-12T01:26:56.556Z,78.60
2018-04-12T01:27:56.568Z,77.30
2018-04-12T01:28:56.506Z,83.40
2018-04-12T01:29:56.486Z,79.40
2018-04-12T01:30:56.463Z,77.90
2018-04-12T01:31:56.444Z,78.80
2018-04-12T01:32:56.406Z,77.30
2018-04-12T01:33:56.494Z,77.50
2018-04-12T01:34:56.421Z,76.40
2018-04-12T01:35:56.366Z,76.70
2018-04-12T01:36:56.377Z,77.10
2018-04-12T01:37:56.361Z,74.70
2018-04-12T01:38:56.315Z,75.60
2018-04-12T01:39:56.334Z,80.10
2018-04-12T01:40:56.251Z,82.60
2018-04-12T01:41:56.269Z,76.30
2018-04-12T01:42:56.220Z,77.80
2018-04-12T01:43:56.204Z,76.60
2018-04-12T01:44:56.243Z,75.60
2018-04-12T01:45:56.179Z,78.30
2018-04-12T01:46:56.146Z,80.00
2018-04-12T01:47:56.117Z,78.10
2018-04-12T01:48:56.103Z,77.40
2018-04-12T01:49:56.083Z,73.20
2018-04-12T01:50:56.078Z,74.40
2018-04-12T01:51:56.066Z,74.70
2018-04-12T01:52:56.020Z,76.40
2018-04-12T01:53:56.047Z,73.70
2018-04-12T01:54:56.031Z,77.70
2018-04-12T01:55:55.995Z,75.60
2018-04-12T01:56:55.943Z,78.40
2018-04-12T01:57:55.930Z,75.80
2018-04-12T01:58:55.923Z,77.60
2018-04-12T01:59:55.888Z,75.40
2018-04-12T02:00:55.898Z,73.60
2018-04-12T02:01:55.902Z,74.60
2018-04-12T02:02:55.888Z,76.60
2018-04-12T02:03:55.810Z,77.10
2018-04-12T02:04:55.817Z,75.50
2018-04-12T02:05:55.799Z,71.20
2018-04-12T02:06:55.789Z,72.50
2018-04-12T02:07:55.994Z,72.30
2018-04-12T02:08:55.754Z,71.10
2018-04-12T02:09:55.763Z,72.60
2018-04-12T02:10:55.680Z,71.20
2018-04-12T02:11:55.657Z,71.60
2018-04-12T02:12:55.668Z,71.50
2018-04-12T02:13:55.620Z,72.60
2018-04-12T02:14:55.634Z,75.20
2018-04-12T02:15:55.586Z,73.50
2018-04-12T02:16:55.666Z,77.30
2018-04-12T02:17:55.601Z,72.20
2018-04-12T02:18:55.587Z,69.70
2018-04-12T02:19:55.644Z,71.00
2018-04-12T02:20:55.499Z,68.80
2018-04-12T02:21:55.465Z,72.30
2018-04-12T02:22:55.462Z,70.40
2018-04-12T02:23:55.464Z,69.20
2018-04-12T02:24:55.413Z,69.10
2018-04-12T02:25:55.410Z,69.30
2018-04-12T02:26:55.375Z,68.40
2018-04-12T02:27:55.343Z,69.50
2018-04-12T02:28:55.365Z,67.90
2018-04-12T02:29:55.339Z,70.70
2018-04-12T02:30:55.439Z,69.40
2018-04-12T02:31:55.307Z,68.80
2018-04-12T02:32:55.250Z,70.10
2018-04-12T02:33:55.227Z,70.20
2018-04-12T02:34:55.313Z,67.20
2018-04-12T02:35:55.223Z,69.10
2018-04-12T02:36:55.174Z,65.30
2018-04-12T02:37:55.161Z,68.50
2018-04-12T02:39:02.831Z,67.50
2018-04-12T02:41:00.710Z,64.30
2018-04-12T02:41:49.567Z,66.30
2018-04-12T02:42:49.583Z,64.00
2018-04-12T02:43:49.461Z,66.00
2018-04-12T02:44:49.494Z,62.40
2018-04-12T02:45:49.648Z,64.70
2018-04-12T02:46:49.383Z,65.40
2018-04-12T02:47:49.375Z,65.40
2018-04-12T02:48:49.353Z,66.70
2018-04-12T02:49:49.361Z,67.40
2018-04-12T02:50:49.310Z,61.90
2018-04-12T02:53:22.467Z,61.40
2018-04-12T02:54:12.299Z,61.70
2018-04-12T02:55:12.328Z,61.10
2018-04-12T02:56:12.272Z,61.20
2018-04-12T02:57:12.273Z,61.50
2018-04-12T02:58:12.260Z,62.80
2018-04-12T02:59:12.200Z,60.80
2018-04-12T03:00:12.187Z,61.60
2018-04-12T03:01:12.163Z,60.20
2018-04-12T03:02:12.158Z,61.20
2018-04-12T03:03:12.115Z,61.50
2018-04-12T03:04:12.115Z,62.40
2018-04-12T03:05:12.095Z,58.90
2018-04-12T03:06:12.084Z,57.80
2018-04-12T03:07:12.038Z,57.20
2018-04-12T03:08:12.134Z,60.00
2018-04-12T03:09:12.051Z,60.00
2018-04-12T03:10:11.979Z,59.80
2018-04-12T03:11:11.956Z,59.70
2018-04-12T03:12:11.942Z,59.80
2018-04-12T03:13:11.938Z,59.30
2018-04-12T03:14:11.947Z,59.40
2018-04-12T03:15:11.887Z,58.10
2018-04-12T03:16:11.856Z,57.30
2018-04-12T03:17:11.864Z,58.60
2018-04-12T03:18:11.829Z,55.60
2018-04-12T03:19:11.827Z,57.30
2018-04-12T03:20:11.782Z,56.00
2018-04-12T03:21:11.790Z,60.00
2018-04-12T03:22:11.758Z,56.70
2018-04-12T03:23:11.725Z,58.00
2018-04-12T03:24:11.713Z,57.10
2018-04-12T03:25:11.707Z,55.40
2018-04-12T03:26:11.747Z,56.50
2018-04-12T03:27:11.680Z,55.80
2018-04-12T03:28:11.675Z,56.90
2018-04-12T03:29:11.658Z,57.10
2018-04-12T03:30:11.587Z,58.60
2018-04-12T03:31:11.581Z,56.40
2018-04-12T03:32:11.594Z,55.20
2018-04-12T03:33:11.541Z,55.90
2018-04-12T03:34:11.519Z,55.80
2018-04-12T03:35:11.544Z,54.40
2018-04-12T03:36:11.500Z,54.60
2018-04-12T03:37:11.528Z,55.20
2018-04-12T03:38:11.484Z,55.90
2018-04-12T03:39:11.403Z,56.80
2018-04-12T03:40:11.460Z,55.10
2018-04-12T03:41:11.386Z,56.70
2018-04-12T03:42:11.432Z,56.70
2018-04-12T03:43:11.328Z,55.90
2018-04-12T03:44:11.305Z,55.90
2018-04-12T03:45:11.342Z,56.10
2018-04-12T03:46:11.280Z,54.60
2018-04-12T03:47:11.266Z,55.40
2018-04-12T03:48:11.270Z,55.90
2018-04-12T03:49:11.268Z,56.20
2018-04-12T03:50:11.195Z,56.60
2018-04-12T03:51:11.164Z,55.20
2018-04-12T03:52:11.237Z,55.70
2018-04-12T03:53:11.148Z,54.10
2018-04-12T03:54:11.176Z,55.70
2018-04-12T03:55:11.090Z,54.80
2018-04-12T03:56:11.148Z,53.40
2018-04-12T03:57:11.104Z,54.70
2018-04-12T03:58:11.035Z,55.60
2018-04-12T03:59:11.015Z,54.90
2018-04-12T04:00:11.011Z,56.60
2018-04-12T04:01:11.028Z,55.80
2018-04-12T04:02:10.959Z,55.10
2018-04-12T04:03:10.993Z,54.50
2018-04-12T04:04:10.919Z,54.90
2018-04-12T04:05:10.913Z,56.10
2018-04-12T04:06:10.879Z,57.00
2018-04-12T04:07:10.877Z,54.60
2018-04-12T04:08:10.835Z,57.40
2018-04-12T04:09:10.830Z,57.50
2018-04-12T04:10:10.804Z,57.00
2018-04-12T04:11:10.802Z,54.30
2018-04-12T04:13:42.920Z,54.00
2018-04-12T04:14:32.956Z,57.10
2018-04-12T04:15:32.806Z,56.80
2018-04-12T04:16:32.816Z,56.80
2018-04-12T04:17:32.838Z,56.10
2018-04-12T04:18:32.786Z,54.70
2018-04-12T04:19:32.780Z,53.30
2018-04-12T04:20:32.710Z,55.40
2018-04-12T04:21:32.693Z,58.40
2018-04-12T04:22:32.660Z,57.90
2018-04-12T04:23:32.650Z,58.30
2018-04-12T04:24:32.667Z,54.00
2018-04-12T04:25:32.655Z,56.30
2018-04-12T04:26:32.579Z,57.60
2018-04-12T04:27:32.624Z,54.30
2018-04-12T04:28:32.585Z,55.50
2018-04-12T04:29:32.627Z,54.40
2018-04-12T04:30:32.523Z,56.00
2018-04-12T04:31:32.516Z,59.20
2018-04-12T04:32:32.460Z,57.80
2018-04-12T04:33:32.461Z,54.30
2018-04-12T04:34:32.414Z,57.60
2018-04-12T04:35:32.399Z,55.40
2018-04-12T04:36:32.383Z,54.00
2018-04-12T04:37:32.390Z,55.30
2018-04-12T04:38:32.358Z,54.40
2018-04-12T04:39:32.331Z,57.20
2018-04-12T04:40:32.305Z,56.10
2018-04-12T04:41:32.307Z,54.30
2018-04-12T04:42:32.268Z,55.30
2018-04-12T04:43:32.260Z,57.30
2018-04-12T04:44:32.248Z,55.10
2018-04-12T04:45:32.206Z,57.20
2018-04-12T04:46:32.177Z,55.10
2018-04-12T04:47:32.198Z,55.40
2018-04-12T04:48:32.153Z,60.40
2018-04-12T04:49:32.129Z,55.90
2018-04-12T04:50:32.099Z,55.30
2018-04-12T04:51:32.075Z,56.20
2018-04-12T04:52:32.071Z,55.20
2018-04-12T04:53:32.043Z,58.10
2018-04-12T04:54:32.018Z,57.20
2018-04-12T04:55:32.002Z,57.40
2018-04-12T04:56:31.989Z,55.90
2018-04-12T04:57:31.962Z,55.90
2018-04-12T04:58:31.969Z,59.50
2018-04-12T04:59:31.915Z,56.60
2018-04-12T05:00:31.903Z,57.70
2018-04-12T05:01:31.928Z,57.50
2018-04-12T05:02:31.856Z,56.40
2018-04-12T05:03:31.856Z,57.70
2018-04-12T05:04:31.824Z,58.50
2018-04-12T05:05:31.808Z,56.90
2018-04-12T05:06:31.795Z,57.00
2018-04-12T05:07:31.767Z,57.50
2018-04-12T05:08:31.739Z,55.60
2018-04-12T05:09:31.718Z,55.90
2018-04-12T05:10:31.739Z,54.80
2018-04-12T05:11:31.680Z,58.30
2018-04-12T05:12:31.686Z,54.90
2018-04-12T05:13:31.637Z,56.70
2018-04-12T05:14:31.632Z,56.70
2018-04-12T05:15:31.719Z,55.80
2018-04-12T05:16:31.585Z,57.70
2018-04-12T05:17:31.579Z,57.20
2018-04-12T05:18:31.584Z,57.30
2018-04-12T05:19:31.569Z,58.80
2018-04-12T05:20:31.530Z,60.70
2018-04-12T05:21:31.527Z,60.40
2018-04-12T05:22:31.459Z,60.50
2018-04-12T05:23:31.458Z,58.80
2018-04-12T05:24:31.423Z,58.30
2018-04-12T05:25:31.420Z,57.80
2018-04-12T05:26:31.402Z,56.30
2018-04-12T05:27:31.373Z,58.50
2018-04-12T05:28:31.353Z,60.10
2018-04-12T05:29:31.391Z,56.90
2018-04-12T05:30:31.301Z,59.60
2018-04-12T05:31:31.299Z,55.80
2018-04-12T05:32:31.269Z,56.30
2018-04-12T05:33:31.248Z,54.70
2018-04-12T05:34:31.241Z,57.90
2018-04-12T05:35:31.206Z,55.10
2018-04-12T05:36:31.396Z,61.00
2018-04-12T05:37:31.152Z,58.00
2018-04-12T05:38:31.181Z,58.50
2018-04-12T05:39:31.125Z,56.60
2018-04-12T05:40:31.231Z,58.70
2018-04-12T05:41:31.074Z,59.40
2018-04-12T05:42:31.081Z,60.70
2018-04-12T05:43:31.079Z,63.90
2018-04-12T05:44:31.019Z,59.80
2018-04-12T05:45:30.994Z,60.20
2018-04-12T05:46:31.002Z,59.90
2018-04-12T05:47:30.970Z,63.00
2018-04-12T05:48:30.937Z,61.40
2018-04-12T05:49:31.119Z,61.30
2018-04-12T05:50:30.900Z,58.00
2018-04-12T05:51:30.910Z,60.50
2018-04-12T05:52:30.865Z,63.80
2018-04-12T05:53:30.874Z,60.40
2018-04-12T05:54:30.820Z,61.80
2018-04-12T05:55:30.817Z,63.30
2018-04-12T05:56:30.831Z,61.30
2018-04-12T05:57:30.758Z,60.20
2018-04-12T05:58:30.786Z,63.50
2018-04-12T05:59:30.728Z,61.10
2018-04-12T06:00:30.725Z,64.00
2018-04-12T06:01:30.679Z,62.90
2018-04-12T06:02:30.660Z,60.10
2018-04-12T06:03:30.647Z,62.40
2018-04-12T06:04:30.685Z,62.50
2018-04-12T06:05:30.627Z,64.50
2018-04-12T06:06:30.635Z,60.50
2018-04-12T06:07:30.575Z,60.60
2018-04-12T06:08:30.575Z,61.50
2018-04-12T06:09:30.539Z,62.80
2018-04-12T06:10:30.526Z,60.10
2018-04-12T06:11:30.477Z,59.60
2018-04-12T06:12:30.473Z,60.70
2018-04-12T06:13:30.481Z,62.40
2018-04-12T06:14:30.436Z,61.70
2018-04-12T06:15:30.414Z,62.50
2018-04-12T06:16:30.441Z,59.10
2018-04-12T06:17:30.380Z,61.50
2018-04-12T06:18:30.384Z,62.00
2018-04-12T06:19:30.328Z,58.90
2018-04-12T06:20:30.344Z,62.10
2018-04-12T06:21:30.309Z,58.10
2018-04-12T06:22:30.304Z,62.50
2018-04-12T06:23:30.271Z,60.80
2018-04-12T06:24:30.437Z,62.70
2018-04-12T06:25:30.220Z,59.80
2018-04-12T06:26:30.251Z,62.90
2018-04-12T06:27:30.167Z,63.70
2018-04-12T06:28:30.177Z,63.10
2018-04-12T06:29:30.271Z,63.30
2018-04-12T06:30:30.130Z,65.20
2018-04-12T06:31:30.107Z,61.20
2018-04-12T06:32:30.186Z,62.00
2018-04-12T06:33:30.052Z,63.00
2018-04-12T06:34:30.053Z,62.40
2018-04-12T06:35:30.034Z,61.50
2018-04-12T06:36:30.001Z,62.10
2018-04-12T06:37:30.006Z,61.50
2018-04-12T06:38:29.966Z,61.10
2018-04-12T06:39:29.937Z,61.80
2018-04-12T06:40:29.961Z,62.90
2018-04-12T06:41:29.929Z,60.80
2018-04-12T06:42:30.294Z,64.40
2018-04-12T06:43:29.902Z,63.40
2018-04-12T06:44:29.864Z,63.10
2018-04-12T06:45:29.839Z,65.60
2018-04-12T06:46:29.819Z,62.70
2018-04-12T06:47:29.777Z,67.50
2018-04-12T06:48:29.761Z,63.80
2018-04-12T06:49:29.768Z,63.90
2018-04-12T06:50:29.770Z,65.90
2018-04-12T06:51:29.712Z,67.40
2018-04-12T06:52:29.687Z,63.10
2018-04-12T06:53:29.663Z,65.10
2018-04-12T06:54:29.654Z,64.90
2018-04-12T06:55:29.650Z,62.80
2018-04-12T06:56:29.626Z,68.40
2018-04-12T06:57:29.658Z,67.20
2018-04-12T06:58:29.676Z,62.50
2018-04-12T06:59:29.560Z,63.10
2018-04-12T07:00:29.546Z,65.30
2018-04-12T07:01:29.507Z,65.60
2018-04-12T07:02:29.490Z,68.70
2018-04-12T07:03:29.473Z,68.20
2018-04-12T07:04:29.469Z,64.70
2018-04-12T07:05:29.435Z,64.00
2018-04-12T07:06:29.415Z,64.90
2018-04-12T07:07:29.402Z,63.50
2018-04-12T07:08:29.375Z,63.40
2018-04-12T07:09:29.362Z,63.80
2018-04-12T07:10:29.350Z,65.80
2018-04-12T07:11:29.322Z,65.40
2018-04-12T07:12:29.411Z,66.50
2018-04-12T07:13:29.303Z,66.40
2018-04-12T07:14:29.431Z,63.10
2018-04-12T07:15:29.267Z,64.10
2018-04-12T07:16:29.250Z,64.30
2018-04-12T07:17:29.212Z,63.10
2018-04-12T07:18:29.212Z,63.50
2018-04-12T07:19:29.282Z,63.10
2018-04-12T07:20:29.267Z,63.00
2018-04-12T07:21:29.135Z,64.10
2018-04-12T07:22:29.148Z,61.20
2018-04-12T07:23:29.096Z,67.30
2018-04-12T07:24:29.092Z,64.50
2018-04-12T07:25:29.106Z,63.50
2018-04-12T07:26:29.041Z,65.80
2018-04-12T07:27:29.055Z,66.00
2018-04-12T07:28:29.013Z,64.00
2018-04-12T07:29:29.072Z,62.90
2018-04-12T07:30:28.986Z,67.60
2018-04-12T07:31:28.949Z,65.00
2018-04-12T07:32:28.928Z,64.30
2018-04-12T07:33:28.928Z,67.30
2018-04-12T07:34:28.888Z,67.90
2018-04-12T07:35:28.878Z,66.00
2018-04-12T07:36:28.891Z,66.30
2018-04-12T07:37:28.857Z,63.20
2018-04-12T07:38:28.860Z,64.80
2018-04-12T07:39:28.826Z,64.60
2018-04-12T07:40:28.812Z,66.10
2018-04-12T07:41:28.758Z,64.90
2018-04-12T07:42:28.742Z,63.60
2018-04-12T07:43:28.758Z,67.10
2018-04-12T07:44:28.721Z,65.10
2018-04-12T07:45:28.717Z,63.30
2018-04-12T07:46:28.693Z,64.50
2018-04-12T07:47:28.716Z,67.00
2018-04-12T07:48:28.658Z,63.70
2018-04-12T07:49:28.613Z,63.60
2018-04-12T07:50:28.604Z,68.60
2018-04-12T07:51:28.605Z,65.40
2018-04-12T07:52:28.578Z,66.10
2018-04-12T07:53:28.589Z,66.10
2018-04-12T07:54:28.527Z,66.70
2018-04-12T07:55:28.558Z,64.50
2018-04-12T07:56:28.485Z,66.10
2018-04-12T07:57:28.467Z,64.20
2018-04-12T07:58:28.465Z,65.50
2018-04-12T07:59:28.440Z,64.40
2018-04-12T08:00:28.425Z,65.40
2018-04-12T08:01:28.406Z,64.60
2018-04-12T08:02:28.392Z,64.80
2018-04-12T08:03:28.360Z,65.30
2018-04-12T08:04:28.424Z,66.10
2018-04-12T08:05:28.339Z,66.10
2018-04-12T08:06:28.301Z,67.50
2018-04-12T08:07:28.299Z,65.80
2018-04-12T08:08:28.268Z,71.30
2018-04-12T08:09:28.253Z,66.90
2018-04-12T08:10:28.267Z,67.60
2018-04-12T08:11:28.300Z,67.80
2018-04-12T08:12:28.264Z,68.30
2018-04-12T08:13:28.172Z,72.10
2018-04-12T08:14:28.235Z,67.60
2018-04-12T08:15:28.153Z,68.30
2018-04-12T08:16:28.120Z,69.90
2018-04-12T08:17:28.116Z,68.00
2018-04-12T08:18:28.085Z,68.30
2018-04-12T08:19:28.110Z,69.90
2018-04-12T08:20:28.083Z,69.20
2018-04-12T08:21:28.029Z,66.30
2018-04-12T08:22:28.022Z,68.50
2018-04-12T08:23:28.001Z,70.60
2018-04-12T08:24:27.981Z,68.80
2018-04-12T08:25:27.960Z,66.70
2018-04-12T08:26:27.975Z,68.00
2018-04-12T08:27:27.970Z,65.50
2018-04-12T08:28:27.905Z,65.10
2018-04-12T08:29:27.887Z,68.40
2018-04-12T08:30:27.873Z,66.80
2018-04-12T08:31:27.870Z,67.60
2018-04-12T08:32:27.850Z,67.90
2018-04-12T08:33:27.855Z,69.80
2018-04-12T08:34:27.856Z,66.30
2018-04-12T08:35:27.785Z,68.60
2018-04-12T08:36:27.785Z,69.10
2018-04-12T08:37:27.744Z,67.50
2018-04-12T08:38:27.735Z,69.50
2018-04-12T08:39:27.708Z,65.70
2018-04-12T08:40:27.720Z,66.10
2018-04-12T08:41:27.679Z,64.70
2018-04-12T08:42:27.747Z,67.60
2018-04-12T08:43:27.644Z,68.00
2018-04-12T08:44:27.618Z,66.60
2018-04-12T08:45:27.604Z,63.30
2018-04-12T08:46:27.589Z,67.10
2018-04-12T08:47:27.566Z,64.60
2018-04-12T08:48:27.550Z,65.70
2018-04-12T08:49:27.545Z,65.30
2018-04-12T08:50:27.514Z,64.20
2018-04-12T08:51:27.522Z,66.80
2018-04-12T08:52:27.497Z,65.20
2018-04-12T08:53:27.462Z,67.40
2018-04-12T08:54:27.438Z,65.40
2018-04-12T08:55:27.437Z,66.20
2018-04-12T08:56:27.432Z,66.60
2018-04-12T08:57:27.405Z,67.80
2018-04-12T08:58:27.369Z,65.90
2018-04-12T08:59:27.358Z,64.00
2018-04-12T09:00:27.355Z,65.30
2018-04-12T09:01:27.315Z,67.40
2018-04-12T09:02:27.299Z,66.90
2018-04-12T09:03:27.307Z,64.60
2018-04-12T09:04:27.286Z,65.10
2018-04-12T09:05:27.258Z,62.90
2018-04-12T09:06:27.247Z,64.60
2018-04-12T09:07:27.220Z,65.50
2018-04-12T09:08:27.216Z,62.60
2018-04-12T09:09:27.185Z,63.80
2018-04-12T09:10:27.224Z,62.70
2018-04-12T09:11:27.139Z,63.40
2018-04-12T09:12:27.144Z,62.00
2018-04-12T09:13:27.116Z,63.90
2018-04-12T09:14:27.093Z,63.00
2018-04-12T09:15:27.118Z,64.80
2018-04-12T09:16:27.056Z,62.00
2018-04-12T09:17:27.032Z,62.80
2018-04-12T09:18:27.046Z,63.40
2018-04-12T09:19:27.026Z,60.90
2018-04-12T09:20:27.002Z,61.70
2018-04-12T09:21:26.987Z,61.00
2018-04-12T09:22:26.952Z,63.20
2018-04-12T09:23:26.932Z,63.00
2018-04-12T09:24:26.918Z,61.80
2018-04-12T09:25:26.892Z,62.10
2018-04-12T09:26:26.878Z,60.30
2018-04-12T09:27:26.869Z,61.30
2018-04-12T09:28:26.886Z,61.90
2018-04-12T09:29:26.826Z,61.80
2018-04-12T09:30:26.838Z,62.10
2018-04-12T09:31:26.806Z,59.60
2018-04-12T09:32:26.767Z,60.70
2018-04-12T09:33:26.762Z,61.20
2018-04-12T09:34:26.755Z,60.00
2018-04-12T09:35:26.738Z,59.50
2018-04-12T09:36:26.700Z,60.00
2018-04-12T09:37:26.680Z,58.00
2018-04-12T09:38:26.697Z,58.80
2018-04-12T09:39:26.648Z,58.50
2018-04-12T09:40:26.676Z,58.50
2018-04-12T09:41:26.619Z,55.30
2018-04-12T09:42:26.753Z,57.90
2018-04-12T09:43:26.618Z,57.40
2018-04-12T09:44:26.584Z,58.50
2018-04-12T09:45:26.570Z,56.60
2018-04-12T09:46:26.633Z,58.70
2018-04-12T09:47:26.528Z,57.80
2018-04-12T09:48:26.522Z,56.40
2018-04-12T09:49:26.522Z,55.10
2018-04-12T09:50:26.501Z,55.40
2018-04-12T09:51:26.461Z,58.00
2018-04-12T09:52:26.450Z,56.00
2018-04-12T09:53:26.433Z,57.20
2018-04-12T09:54:26.397Z,56.70
2018-04-12T09:55:26.388Z,56.30
2018-04-12T09:56:26.380Z,54.70
2018-04-12T09:57:26.355Z,54.80
2018-04-12T09:58:26.356Z,56.20
2018-04-12T09:59:26.364Z,54.00
2018-04-12T10:00:26.314Z,56.50
2018-04-12T10:01:26.296Z,55.00
2018-04-12T10:02:26.265Z,54.20
2018-04-12T10:03:26.266Z,56.10
2018-04-12T10:04:26.251Z,54.10
2018-04-12T10:05:26.279Z,55.20
2018-04-12T10:06:26.218Z,53.30
2018-04-12T10:07:26.231Z,52.40
2018-04-12T10:08:26.197Z,52.50
2018-04-12T10:09:26.153Z,49.90
2018-04-12T10:10:26.150Z,51.10
2018-04-12T10:11:26.130Z,51.70
2018-04-12T10:12:26.122Z,51.20
2018-04-12T10:13:26.105Z,51.20
2018-04-12T10:14:26.109Z,49.00
2018-04-12T10:15:26.089Z,49.70
2018-04-12T10:16:26.063Z,48.30
2018-04-12T10:17:26.130Z,50.10
2018-04-12T10:18:26.037Z,50.00
2018-04-12T10:19:26.028Z,48.60
2018-04-12T10:20:26.012Z,46.80
2018-04-12T10:21:25.977Z,47.20
2018-04-12T10:22:25.981Z,45.50
2018-04-12T10:23:26.015Z,46.20
2018-04-12T10:24:25.943Z,45.00
2018-04-12T10:25:25.973Z,46.50
2018-04-12T10:26:25.898Z,44.70
2018-04-12T10:28:48.958Z,43.40
2018-04-12T10:29:48.984Z,43.80
2018-04-12T10:30:48.932Z,45.10
2018-04-12T10:31:48.882Z,43.40
2018-04-12T10:34:22.605Z,42.70
2018-04-12T10:35:12.895Z,42.90
2018-04-12T10:36:13.181Z,42.20
2018-04-12T10:37:12.844Z,44.00
2018-04-12T10:38:12.954Z,44.20
2018-04-12T10:39:12.905Z,45.00
2018-04-12T10:40:12.936Z,42.80
2018-04-12T10:41:12.773Z,43.60
2018-04-12T10:42:12.792Z,43.60
2018-04-12T10:43:12.776Z,42.70
2018-04-12T10:44:12.735Z,45.00
2018-04-12T10:45:12.713Z,43.40
2018-04-12T10:46:12.719Z,42.50
2018-04-12T10:47:12.761Z,41.60
2018-04-12T10:48:12.703Z,42.20
2018-04-12T10:49:12.693Z,42.50
2018-04-12T10:50:12.678Z,41.00
2018-04-12T10:51:12.649Z,42.30
2018-04-12T10:52:12.689Z,42.80
2018-04-12T10:53:12.611Z,42.20
2018-04-12T10:54:12.641Z,42.10
2018-04-12T10:55:12.591Z,41.60
2018-04-12T10:56:12.550Z,41.70
2018-04-12T10:57:12.533Z,42.30
2018-04-12T10:58:12.522Z,42.70
2018-04-12T11:00:45.663Z,40.90
2018-04-12T11:01:35.629Z,39.00
2018-04-12T11:02:35.626Z,40.90
2018-04-12T11:03:35.711Z,41.90
2018-04-12T11:04:35.528Z,41.60
2018-04-12T11:05:35.491Z,42.20
2018-04-12T11:06:35.521Z,40.40
2018-04-12T11:07:35.495Z,40.50
2018-04-12T11:08:35.449Z,40.70
2018-04-12T11:09:35.457Z,40.50
2018-04-12T11:10:35.468Z,40.60
2018-04-12T11:11:35.447Z,39.40
2018-04-12T11:14:07.976Z,42.00
2018-04-12T11:14:58.459Z,40.80
2018-04-12T11:15:58.406Z,40.70
2018-04-12T11:16:58.397Z,40.30
2018-04-12T11:17:58.385Z,39.50
2018-04-12T11:18:58.362Z,40.60
2018-04-12T11:19:58.463Z,39.60
2018-04-12T11:20:58.327Z,40.20
2018-04-12T11:21:58.303Z,40.50
2018-04-12T11:22:58.360Z,38.90
2018-04-12T11:23:58.303Z,39.20
2018-04-12T11:24:58.287Z,39.60
2018-04-12T11:25:58.275Z,38.20
2018-04-12T11:26:58.243Z,40.30
2018-04-12T11:27:58.226Z,39.70
2018-04-12T11:28:58.224Z,40.40
2018-04-12T11:29:58.199Z,39.90
2018-04-12T11:30:58.203Z,40.40
2018-04-12T11:31:58.168Z,39.30
2018-04-12T11:32:58.166Z,39.30
2018-04-12T11:33:58.178Z,40.50
2018-04-12T11:34:58.161Z,37.50
2018-04-12T11:35:58.139Z,39.90
2018-04-12T11:36:58.137Z,39.50
2018-04-12T11:37:58.084Z,38.60
2018-04-12T11:38:58.108Z,38.40
2018-04-12T11:39:58.121Z,37.40
2018-04-12T11:40:58.038Z,38.80
2018-04-12T11:41:58.020Z,37.00
2018-04-12T11:42:58.023Z,38.60
2018-04-12T11:43:58.020Z,38.60
2018-04-12T11:44:57.985Z,38.30
2018-04-12T11:45:57.971Z,38.90
2018-04-12T11:46:57.948Z,38.20
2018-04-12T11:47:57.943Z,38.90
2018-04-12T11:48:57.938Z,37.70
2018-04-12T11:51:31.165Z,38.50
2018-04-12T11:52:20.989Z,37.80
2018-04-12T11:53:20.981Z,37.70
2018-04-12T11:54:20.978Z,38.30
2018-04-12T11:56:54.040Z,38.30
2018-04-12T11:57:44.310Z,38.30
2018-04-12T11:58:43.924Z,37.60
2018-04-12T11:59:43.915Z,38.10
2018-04-12T12:00:44.001Z,40.10
2018-04-12T12:01:43.950Z,38.50
2018-04-12T12:02:43.917Z,37.80
2018-04-12T12:03:43.865Z,37.90
2018-04-12T12:04:43.857Z,37.10
2018-04-12T12:05:43.817Z,36.80
2018-04-12T12:06:43.859Z,37.90
2018-04-12T12:07:43.822Z,38.00
2018-04-12T12:08:51.628Z,38.60
2018-04-12T12:10:38.284Z,38.50
2018-04-12T12:11:38.441Z,39.00
2018-04-12T12:14:11.305Z,38.10
2018-04-12T12:15:02.108Z,37.40
2018-04-12T12:17:34.679Z,38.20
2018-04-12T12:18:24.211Z,38.30
2018-04-12T12:19:24.203Z,37.70
2018-04-12T12:20:24.256Z,37.70
2018-04-12T12:21:24.132Z,36.80
2018-04-12T12:22:24.104Z,38.00
2018-04-12T12:23:24.103Z,39.20
2018-04-12T12:24:24.071Z,37.20
2018-04-12T12:25:24.074Z,38.00
2018-04-12T12:27:47.145Z,38.20
2018-04-12T12:28:47.141Z,37.90
2018-04-12T12:29:47.129Z,37.90
2018-04-12T12:30:47.064Z,37.90
2018-04-12T12:31:47.020Z,38.00
2018-04-12T12:32:47.013Z,36.40
2018-04-12T12:33:47.063Z,38.10
2018-04-12T12:34:46.987Z,36.70
2018-04-12T12:35:47.003Z,39.00
2018-04-12T12:38:20.093Z,38.40
2018-04-12T12:39:10.095Z,37.50
2018-04-12T12:40:10.096Z,37.80
2018-04-12T12:41:17.704Z,36.20
2018-04-12T12:43:14.411Z,38.00
2018-04-12T12:44:04.322Z,37.10
2018-04-12T12:45:04.296Z,36.60
2018-04-12T12:46:04.353Z,37.00
2018-04-12T12:47:04.304Z,35.90
2018-04-12T12:48:04.270Z,37.50
2018-04-12T12:50:28.308Z,37.30
2018-04-12T12:51:28.326Z,35.90
2018-04-12T12:52:28.267Z,37.90
2018-04-12T12:53:28.271Z,37.90
2018-04-12T12:54:28.258Z,37.70
2018-04-12T12:55:28.219Z,37.00
2018-04-12T12:58:03.387Z,37.60
2018-04-12T12:58:52.246Z,37.30
2018-04-12T12:59:52.242Z,36.90
2018-04-12T13:00:52.294Z,36.40
2018-04-12T13:01:52.259Z,35.70
2018-04-12T13:02:52.189Z,38.10
2018-04-12T13:03:52.214Z,36.80
2018-04-12T13:04:52.199Z,35.80
2018-04-12T13:05:52.191Z,36.40
2018-04-12T13:06:52.196Z,35.60
2018-04-12T13:07:52.167Z,36.30
2018-04-12T13:08:52.179Z,35.30
2018-04-12T13:09:52.100Z,35.40
2018-04-12T13:10:52.090Z,35.50
2018-04-12T13:11:52.086Z,36.50
2018-04-12T13:12:52.095Z,35.90
2018-04-12T13:13:52.052Z,35.90
2018-04-12T13:14:52.087Z,35.70
2018-04-12T13:15:52.028Z,35.40
2018-04-12T13:16:52.021Z,35.00
2018-04-12T13:17:52.004Z,35.40
2018-04-12T13:18:51.998Z,34.20
2018-04-12T13:19:52.009Z,35.80